tititudorancea.com
Station Historical Data
Daily Summary for March 2, 2019 Units:  Metric    English   Both
« Previous Day
Next Day »
Daily Weekly Monthly Yearly Custom
  High: Low: Average:
Temperature: -17.8 °C 21.1 °C 28.2 °C
Dew Point: -17.8 °C 6.2 °C 8.3 °C
Humidity: Humidity % 17 % 30 %
Wind Speed: 0 km/h 0 km/h 11.9 km/h
Wind Gust: 0 km/h - -
Wind:- - East
Pressure: 0 hPa 1013.4 hPa -
Precipitation: 0 mm    
Historical Graphs
 
 
Ararat weather Find more about Weather in Ararat, AU


 



 


Tabular Data for March 2, 2019
Time Temperature Dew Point Pressure Wind Wind Speed Wind Gust Humidity Rainfall Rate (Hourly)
-17.8 °C -17.8 °C 0 hPa Calm     Humidity % 0 mm
00:04 23.7 °C 8.5 °C 1016.5 hPa North 3.7 km/h 1.9 km/h 38 % 0 mm
00:09 23.6 °C 8.4 °C 1016.5 hPa North 3.7 km/h 1.9 km/h 38 % 0 mm
00:14 23.7 °C 8.5 °C 1016.5 hPa North 3.7 km/h 2.4 km/h 38 % 0 mm
00:19 23.6 °C 8.1 °C 1016.5 hPa North 3.7 km/h 3.7 km/h 37 % 0 mm
00:24 23.7 °C 8.9 °C 1016.5 hPa North 5.6 km/h 1.1 km/h 39 % 0 mm
00:29 23.4 °C 8.3 °C 1016.5 hPa North 4.8 km/h 4 km/h 38 % 0 mm
00:34 23.3 °C 8.6 °C 1016.5 hPa North 3.7 km/h 2.3 km/h 39 % 0 mm
00:39 23.2 °C 8.8 °C 1016.5 hPa Calm     40 % 0 mm
00:44 23.1 °C 8.3 °C 1016.5 hPa Calm     39 % 0 mm
00:49 23 °C 8.3 °C 1016.5 hPa Calm     39 % 0 mm
00:54 23 °C 8.7 °C 1016.5 hPa Calm     40 % 0 mm
00:59 22.8 °C 8.8 °C 1016.5 hPa North 1.6 km/h 1 km/h 41 % 0 mm
01:04 22.6 °C 9.1 °C 1016.5 hPa North 1.9 km/h 2.6 km/h 42 % 0 mm
01:09 22.3 °C 9.1 °C 1016.5 hPa North 5.6 km/h 4.2 km/h 43 % 0 mm
01:14 21.9 °C 9.4 °C 1016.5 hPa Calm     45 % 0 mm
01:19 21.5 °C 9.1 °C 1016.5 hPa North 3.7 km/h   45 % 0 mm
01:24 21.3 °C 9.2 °C 1016.5 hPa North 5.6 km/h 3.9 km/h 46 % 0 mm
01:29 21.4 °C 9.3 °C 1016.5 hPa North 3.7 km/h 2.4 km/h 46 % 0 mm
01:34 21.6 °C 9.4 °C 1016.5 hPa Calm     46 % 0 mm
01:39 21.5 °C 9.1 °C 1016.5 hPa Calm     45 % 0 mm
01:44 21.4 °C 9.3 °C 1016.1 hPa Calm     46 % 0 mm
01:49 21.3 °C 9.2 °C 1016.1 hPa Calm     46 % 0 mm
01:54 21.3 °C 9.2 °C 1016.1 hPa Calm     46 % 0 mm
01:59 21.2 °C 9.1 °C 1016.1 hPa North 3.7 km/h 0.6 km/h 46 % 0 mm
02:04 21.1 °C 9.1 °C 1016.1 hPa NNE 5.6 km/h 3.9 km/h 46 % 0 mm
02:09 21.3 °C 8.6 °C 1016.1 hPa North 5.6 km/h 3.2 km/h 44 % 0 mm
02:14 21.7 °C 8.6 °C 1016.1 hPa North 3.7 km/h 2.1 km/h 43 % 0 mm
02:19 22.1 °C 8.6 °C 1016.1 hPa North 5.6 km/h 3.2 km/h 42 % 0 mm
02:24 22.5 °C 8.6 °C 1016.1 hPa North 5.6 km/h 5.1 km/h 41 % 0 mm
02:29 22.9 °C 8.6 °C 1016.1 hPa North 6.4 km/h 4 km/h 40 % 0 mm
02:34 23.3 °C 8.2 °C 1016.1 hPa North 5.6 km/h 4.7 km/h 38 % 0 mm
02:39 23.6 °C 8.4 °C 1016.1 hPa North 5.6 km/h 3.9 km/h 38 % 0 mm
02:44 23.7 °C 8.2 °C 1015.8 hPa North 5.6 km/h 5.6 km/h 37 % 0 mm
02:49 23.9 °C 8.3 °C 1015.8 hPa North 5.6 km/h 3.1 km/h 37 % 0 mm
02:54 24.1 °C 8.1 °C 1015.8 hPa North 5.6 km/h 2.3 km/h 36 % 0 mm
02:59 24.2 °C 8.2 °C 1015.8 hPa North 3.7 km/h 3.2 km/h 36 % 0 mm
03:04 24 °C 8.4 °C 1015.8 hPa North 5.6 km/h 3.7 km/h 37 % 0 mm
03:09 23.8 °C 8.2 °C 1015.8 hPa North 5.6 km/h 3.9 km/h 37 % 0 mm
03:14 23.6 °C 8 °C 1015.8 hPa North 5.6 km/h 3.9 km/h 37 % 0 mm
03:19 23.6 °C 8.4 °C 1015.8 hPa North 5.6 km/h 3.9 km/h 38 % 0 mm
03:24 23.4 °C 8.3 °C 1015.8 hPa North 5.6 km/h 4.2 km/h 38 % 0 mm
03:29 23.4 °C 8.3 °C 1015.8 hPa North 5.6 km/h 4.2 km/h 38 % 0 mm
03:34 23.7 °C 8.2 °C 1015.8 hPa North 5.6 km/h 1.9 km/h 37 % 0 mm
03:39 23.9 °C 8.3 °C 1015.8 hPa North 5.6 km/h 5.3 km/h 37 % 0 mm
03:44 24 °C 8 °C 1015.8 hPa North 5.6 km/h 3.1 km/h 36 % 0 mm
03:49 24.3 °C 8.2 °C 1015.5 hPa North 5.6 km/h 1.8 km/h 36 % 0 mm
03:54 24.3 °C 8.3 °C 1015.8 hPa North 3.7 km/h 3.9 km/h 36 % 0 mm
03:59 24.2 °C 8.2 °C 1015.5 hPa North 5.6 km/h 4.2 km/h 36 % 0 mm
04:04 24.2 °C 8.2 °C 1015.8 hPa North 3.7 km/h 2.4 km/h 36 % 0 mm
04:09 24.1 °C 8.1 °C 1015.8 hPa North 3.7 km/h 2.6 km/h 36 % 0 mm
04:14 24 °C 8 °C 1015.8 hPa North 6.4 km/h 4.3 km/h 36 % 0 mm
04:19 24.2 °C 8.2 °C 1015.5 hPa North 5.6 km/h 5.1 km/h 36 % 0 mm
04:24 24.2 °C 7.8 °C 1015.5 hPa North 3.7 km/h 3.2 km/h 35 % 0 mm
04:29 24.2 °C 7.8 °C 1015.5 hPa North 5.6 km/h 4 km/h 35 % 0 mm
04:34 24.3 °C 7.8 °C 1015.5 hPa North 5.6 km/h 5.5 km/h 35 % 0 mm
04:39 24.4 °C 8 °C 1015.5 hPa North 5.6 km/h 4.2 km/h 35 % 0 mm
04:44 24.5 °C 7.6 °C 1015.5 hPa North 7.4 km/h 3.7 km/h 34 % 0 mm
04:49 24.6 °C 7.7 °C 1015.8 hPa North 5.6 km/h 4 km/h 34 % 0 mm
04:54 24.5 °C 8.1 °C 1015.5 hPa North 5.6 km/h 3.2 km/h 35 % 0 mm
04:59 24.4 °C 7.9 °C 1015.5 hPa North 5.6 km/h 4 km/h 35 % 0 mm
05:04 24.4 °C 7.9 °C 1015.5 hPa North 5.6 km/h 2.3 km/h 35 % 0 mm
05:09 24.2 °C 8.2 °C 1015.8 hPa North 5.6 km/h 2.9 km/h 36 % 0 mm
05:14 24 °C 8 °C 1015.8 hPa North 5.6 km/h 4 km/h 36 % 0 mm
05:19 23.8 °C 7.8 °C 1015.8 hPa North 5.6 km/h 4.5 km/h 36 % 0 mm
05:24 23.8 °C 7.8 °C 1015.8 hPa North 5.6 km/h 4.2 km/h 36 % 0 mm
05:29 23.9 °C 7.9 °C 1015.8 hPa North 6.4 km/h 6.1 km/h 36 % 0 mm
05:34 23.8 °C 7.8 °C 1015.8 hPa North 7.4 km/h 5 km/h 36 % 0 mm
05:39 23.9 °C 7.9 °C 1015.8 hPa North 7.4 km/h 4.3 km/h 36 % 0 mm
05:44 24 °C 8 °C 1015.8 hPa North 6.4 km/h 3.7 km/h 36 % 0 mm
05:49 24.1 °C 8.1 °C 1015.8 hPa North 5.6 km/h 3.9 km/h 36 % 0 mm
05:54 24.1 °C 8.1 °C 1015.8 hPa North 7.4 km/h 6 km/h 36 % 0 mm
05:59 24.1 °C 8.1 °C 1015.8 hPa North 7.4 km/h 5.8 km/h 36 % 0 mm
06:04 23.9 °C 7.9 °C 1016.1 hPa North 8 km/h 5.5 km/h 36 % 0 mm
06:09 23.8 °C 7.8 °C 1015.8 hPa North 7.4 km/h 5.3 km/h 36 % 0 mm
06:14 23.7 °C 8.2 °C 1016.1 hPa North 7.4 km/h 4.7 km/h 37 % 0 mm
06:19 23.6 °C 8.1 °C 1016.1 hPa North 5.6 km/h 5.1 km/h 37 % 0 mm
06:24 23.6 °C 8.1 °C 1016.1 hPa North 9.7 km/h 4.3 km/h 37 % 0 mm
06:29 23.6 °C 8.1 °C 1016.1 hPa North 6.4 km/h 4.8 km/h 37 % 0 mm
06:34 23.5 °C 7.9 °C 1016.1 hPa North 9.3 km/h 6 km/h 37 % 0 mm
06:39 23.3 °C 7.8 °C 1016.1 hPa North 5.6 km/h 5 km/h 37 % 0 mm
06:44 23.3 °C 8.2 °C 1016.1 hPa North 5.6 km/h 4.2 km/h 38 % 0 mm
06:49 23.2 °C 8.1 °C 1016.1 hPa North 7.4 km/h 4.2 km/h 38 % 0 mm
06:54 23.2 °C 8.1 °C 1016.5 hPa North 7.4 km/h 4 km/h 38 % 0 mm
06:59 23.2 °C 8.1 °C 1016.5 hPa North 7.4 km/h 3.4 km/h 38 % 0 mm
07:04 23.1 °C 8 °C 1016.5 hPa North 7.4 km/h 4.8 km/h 38 % 0 mm
07:09 23.1 °C 8.3 °C 1016.5 hPa North 5.6 km/h 4.2 km/h 39 % 0 mm
07:14 22.9 °C 8.2 °C 1016.5 hPa North 5.6 km/h 4.5 km/h 39 % 0 mm
07:19 22.8 °C 8.2 °C 1016.5 hPa North 5.6 km/h 3.9 km/h 39 % 0 mm
07:24 22.9 °C 8.2 °C 1016.5 hPa North 7.4 km/h 4 km/h 39 % 0 mm
07:29 22.9 °C 8.2 °C 1016.5 hPa North 7.4 km/h 5.5 km/h 39 % 0 mm
07:34 22.9 °C 8.2 °C 1016.5 hPa North 5.6 km/h 4 km/h 39 % 0 mm
07:39 22.9 °C 8.6 °C 1016.8 hPa NNE 5.6 km/h 3.4 km/h 40 % 0 mm
07:44 22.8 °C 8.4 °C 1016.8 hPa North 5.6 km/h 2.4 km/h 40 % 0 mm
07:49 22.8 °C 8.4 °C 1016.8 hPa North 5.6 km/h 2.6 km/h 40 % 0 mm
07:54 22.8 °C 8.4 °C 1016.8 hPa North 5.6 km/h 4 km/h 40 % 0 mm
07:59 22.8 °C 8.9 °C 1016.8 hPa North 5.6 km/h 1.1 km/h 41 % 0 mm
08:04 22.9 °C 9 °C 1016.8 hPa North 5.6 km/h 4.3 km/h 41 % 0 mm
08:09 23.1 °C 9.1 °C 1016.8 hPa North 5.6 km/h 3.9 km/h 41 % 0 mm
08:14 23.3 °C 9.3 °C 1016.8 hPa North 5.6 km/h 3.2 km/h 41 % 0 mm
08:19 23.6 °C 9.6 °C 1016.8 hPa North 8 km/h 5.1 km/h 41 % 0 mm
08:24 23.9 °C 9.4 °C 1016.8 hPa North 11.1 km/h 3.9 km/h 40 % 0 mm
08:29 24.2 °C 9.7 °C 1016.8 hPa North 9.7 km/h 4.7 km/h 40 % 0 mm
08:34 24.6 °C 9.7 °C 1017.2 hPa North 9.7 km/h 7.7 km/h 39 % 0 mm
08:39 25.1 °C 9.7 °C 1017.2 hPa North 13 km/h 5.3 km/h 38 % 0 mm
08:44 25.4 °C 9.7 °C 1017.2 hPa North 12.9 km/h 11.1 km/h 37 % 0 mm
08:49 25.7 °C 9.5 °C 1017.2 hPa North 13 km/h 9 km/h 36 % 0 mm
08:54 25.9 °C 9.7 °C 1017.2 hPa North 18.5 km/h 9.5 km/h 36 % 0 mm
08:59 26.1 °C 9.9 °C 1017.2 hPa North 7.4 km/h 6.6 km/h 36 % 0 mm
09:04 26.3 °C 9.7 °C 1017.2 hPa North 16.7 km/h 11.1 km/h 35 % 0 mm
09:09 26.5 °C 9.8 °C 1017.2 hPa North 19.3 km/h 12.1 km/h 35 % 0 mm
09:14 26.7 °C 9.9 °C 1017.2 hPa North 16.7 km/h 7.1 km/h 35 % 0 mm
09:19 26.9 °C 9.7 °C 1017.2 hPa North 18.5 km/h 9 km/h 34 % 0 mm
09:24 27 °C 9.8 °C 1017.2 hPa North 20.4 km/h 11.1 km/h 34 % 0 mm
09:29 27.1 °C 10.3 °C 1017.2 hPa NNE 18.5 km/h 10.6 km/h 35 % 0 mm
09:34 27.3 °C 10.1 °C 1017.2 hPa North 14.8 km/h 9.5 km/h 34 % 0 mm
09:39 27.5 °C 10.2 °C 1017.2 hPa North 13 km/h 11.9 km/h 34 % 0 mm
09:44 27.6 °C 9.9 °C 1017.2 hPa North 20.4 km/h 10 km/h 33 % 0 mm
09:49 27.8 °C 10.1 °C 1016.8 hPa North 13 km/h 7.2 km/h 33 % 0 mm
09:54 28.1 °C 10.7 °C 1016.8 hPa North 11.1 km/h 5.6 km/h 34 % 0 mm
09:59 28.3 °C 10.1 °C 1016.8 hPa North 20.4 km/h 16.7 km/h 32 % 0 mm
10:04 28.5 °C 10.2 °C 1016.8 hPa North 18.5 km/h 11.7 km/h 32 % 0 mm
10:09 28.8 °C 10.4 °C 1016.8 hPa North 18.5 km/h 8.2 km/h 32 % 0 mm
10:14 29.1 °C 10.7 °C 1016.8 hPa North 9.3 km/h 6.6 km/h 32 % 0 mm
10:19 29.1 °C 10.2 °C 1016.8 hPa NNW 22.5 km/h 11.7 km/h 31 % 0 mm
10:24 29.1 °C 10.3 °C 1016.8 hPa NNE 22.2 km/h 16.6 km/h 31 % 0 mm
10:29 29.2 °C 10.3 °C 1016.8 hPa NNE 22.2 km/h 10 km/h 31 % 0 mm
10:34 29.5 °C 10.1 °C 1016.8 hPa NNE 27.8 km/h 13.7 km/h 30 % 0 mm
10:39 29.8 °C 10.4 °C 1016.8 hPa North 24.1 km/h 15.1 km/h 30 % 0 mm
10:44 30.2 °C 10.7 °C 1016.8 hPa NNE 22.2 km/h 15.4 km/h 30 % 0 mm
10:49 30.4 °C 10.4 °C 1016.8 hPa North 25.9 km/h 14.2 km/h 29 % 0 mm
10:54 30.6 °C 10.6 °C 1016.5 hPa NNW 25.9 km/h 10.1 km/h 29 % 0 mm
10:59 30.7 °C 10.6 °C 1016.5 hPa NNE 18.5 km/h 12.4 km/h 29 % 0 mm
11:04 30.9 °C 10.3 °C 1016.5 hPa NNE 18.5 km/h 15.6 km/h 28 % 0 mm
11:09 30.8 °C 10.2 °C 1016.5 hPa North 31.5 km/h 12.9 km/h 28 % 0 mm
11:14 30.9 °C 10.3 °C 1016.5 hPa North 25.9 km/h 17.9 km/h 28 % 0 mm
11:19 30.8 °C 10.2 °C 1016.1 hPa North 18.5 km/h 17.5 km/h 28 % 0 mm
11:24 30.9 °C 9.7 °C 1016.1 hPa North 35.2 km/h 23.3 km/h 27 % 0 mm
11:29 31.1 °C 10.4 °C 1016.1 hPa North 20.4 km/h 16.3 km/h 28 % 0 mm
11:34 31.3 °C 10.6 °C 1016.1 hPa NNE 18.5 km/h 8.7 km/h 28 % 0 mm
11:39 31.7 °C 10.4 °C 1016.5 hPa NNE 29.6 km/h 21.9 km/h 27 % 0 mm
11:44 31.8 °C 9.9 °C 1016.1 hPa NNE 27.8 km/h 21.4 km/h 26 % 0 mm
11:49 31.8 °C 9.9 °C 1016.1 hPa North 27.8 km/h 11.1 km/h 26 % 0 mm
11:54 32 °C 10.1 °C 1016.1 hPa NNW 29.6 km/h 20.1 km/h 26 % 0 mm
11:59 31.9 °C 9.4 °C 1016.1 hPa NNW 27.8 km/h 15.4 km/h 25 % 0 mm
12:04 32.1 °C 10.2 °C 1015.8 hPa North 18.5 km/h 8.4 km/h 26 % 0 mm
12:09 32.3 °C 9.7 °C 1015.8 hPa North 29.6 km/h 23.3 km/h 25 % 0 mm
12:14 32.2 °C 9.7 °C 1015.8 hPa North 27.8 km/h 10.3 km/h 25 % 0 mm
12:19 32.4 °C 9.8 °C 1015.8 hPa North 16.7 km/h 11.6 km/h 25 % 0 mm
12:24 32.4 °C 9.8 °C 1015.8 hPa North 29.6 km/h 19.5 km/h 25 % 0 mm
12:29 32.3 °C 9.8 °C 1015.8 hPa NNW 27.8 km/h 14.5 km/h 25 % 0 mm
12:34 32.4 °C 9.9 °C 1015.8 hPa NNW 22.2 km/h 15.9 km/h 25 % 0 mm
12:39 32.7 °C 9.4 °C 1015.8 hPa North 31.5 km/h 21.7 km/h 24 % 0 mm
12:44 32.6 °C 9.4 °C 1015.8 hPa North 24.1 km/h 17.2 km/h 24 % 0 mm
12:49 32.8 °C 9.6 °C 1015.5 hPa NNW 20.9 km/h 16.7 km/h 24 % 0 mm
12:54 32.9 °C 9.7 °C 1015.5 hPa NNE 27.8 km/h 24.3 km/h 24 % 0 mm
12:59 32.9 °C 9.7 °C 1015.5 hPa NE 33.3 km/h 21.6 km/h 24 % 0 mm
13:04 33.1 °C 9.8 °C 1015.5 hPa NNE 27.8 km/h 16.3 km/h 24 % 0 mm
13:09 33.2 °C 9.3 °C 1015.5 hPa North 22.2 km/h 16.4 km/h 23 % 0 mm
13:14 33.6 °C 10.2 °C 1015.1 hPa NW 22.2 km/h 13.7 km/h 24 % 0 mm
13:19 33.8 °C 9.8 °C 1015.1 hPa NNW 18.5 km/h 11.9 km/h 23 % 0 mm
13:24 33.6 °C 9.6 °C 1015.1 hPa NNE 18.5 km/h 17.7 km/h 23 % 0 mm
13:29 33.5 °C 9.5 °C 1015.1 hPa NNE 29.6 km/h 16.9 km/h 23 % 0 mm
13:34 33.7 °C 9.7 °C 1015.1 hPa NNE 24.1 km/h 17.2 km/h 23 % 0 mm
13:39 33.7 °C 9.7 °C 1015.1 hPa North 29.6 km/h 13 km/h 23 % 0 mm
13:44 33.9 °C 9.8 °C 1015.1 hPa North 29.6 km/h 20.1 km/h 23 % 0 mm
13:49 33.7 °C 9.7 °C 1015.1 hPa NE 20.4 km/h 13.4 km/h 23 % 0 mm
13:54 33.8 °C 9.8 °C 1014.8 hPa North 16.7 km/h 10.8 km/h 23 % 0 mm
13:59 33.8 °C 9.8 °C 1014.8 hPa North 24.1 km/h 21.9 km/h 23 % 0 mm
14:04 33.9 °C 9.8 °C 1014.8 hPa NNW 29.6 km/h 19 km/h 23 % 0 mm
14:09 33.9 °C 9.2 °C 1014.8 hPa NNE 31.5 km/h 16.7 km/h 22 % 0 mm
14:14 33.9 °C 9.9 °C 1014.8 hPa NNE 24.1 km/h 13.8 km/h 23 % 0 mm
14:19 34.3 °C 9.5 °C 1014.8 hPa NNE 31.5 km/h 18.5 km/h 22 % 0 mm
14:24 34.5 °C 9.7 °C 1014.8 hPa NNE 20.4 km/h 9.5 km/h 22 % 0 mm
14:29 34.4 °C 8.9 °C 1014.8 hPa NE 29.6 km/h 17.4 km/h 21 % 0 mm
14:34 34.5 °C 9.7 °C 1014.8 hPa NNW 20.4 km/h 9.5 km/h 22 % 0 mm
14:39 34.8 °C 9.9 °C 1014.4 hPa North 31.5 km/h 9.5 km/h 22 % 0 mm
14:44 34.6 °C 9.1 °C 1014.4 hPa North 20.4 km/h 11.4 km/h 21 % 0 mm
14:49 34.6 °C 9.1 °C 1014.4 hPa NNE 22.2 km/h 17.1 km/h 21 % 0 mm
14:54 34.7 °C 8.4 °C 1014.4 hPa NE 25.9 km/h 14.2 km/h 20 % 0 mm
14:59 35 °C 9.4 °C 1014.4 hPa NNE 22.2 km/h 16.6 km/h 21 % 0 mm
15:04 34.9 °C 7.8 °C 1014.4 hPa NE 31.5 km/h 17.9 km/h 19 % 0 mm
15:09 34.6 °C 8.4 °C 1014.1 hPa North 20.4 km/h 16.9 km/h 20 % 0 mm
15:14 34.8 °C 9.3 °C 1014.1 hPa North 27.8 km/h 9.3 km/h 21 % 0 mm
15:19 34.9 °C 8.6 °C 1014.1 hPa North 32.2 km/h 12.9 km/h 20 % 0 mm
15:24 34.9 °C 8.6 °C 1014.1 hPa NNE 11.1 km/h 8.7 km/h 20 % 0 mm
15:29 35 °C 7.9 °C 1014.1 hPa North 18.5 km/h 12.9 km/h 19 % 0 mm
15:34 34.9 °C 7.9 °C 1014.1 hPa NNW 19.3 km/h 12.9 km/h 19 % 0 mm
15:39 34.9 °C 8.7 °C 1013.8 hPa North 18.5 km/h 13.4 km/h 20 % 0 mm
15:44 35.1 °C 8 °C 1013.8 hPa NE 29.6 km/h 20 km/h 19 % 0 mm
15:49 35 °C 7.9 °C 1013.8 hPa NE 16.1 km/h 10 km/h 19 % 0 mm
15:54 35.3 °C 8.2 °C 1013.8 hPa NNW 19.3 km/h 12.4 km/h 19 % 0 mm
15:59 35.2 °C 8.1 °C 1013.8 hPa NNW 25.9 km/h 19.8 km/h 19 % 0 mm
16:04 35 °C 7.9 °C 1013.8 hPa NNW 24.1 km/h 13 km/h 19 % 0 mm
16:09 35.1 °C 7.2 °C 1013.4 hPa NNW 18.5 km/h 16.1 km/h 18 % 0 mm
16:14 34.9 °C 7.1 °C 1013.4 hPa NNE 18.5 km/h 8.7 km/h 18 % 0 mm
16:19 35.2 °C 7.3 °C 1013.8 hPa North 19.3 km/h 11.4 km/h 18 % 0 mm
16:24 35.2 °C 7.3 °C 1013.4 hPa NNE 25.9 km/h 14 km/h 18 % 0 mm
16:29 35.1 °C 8 °C 1013.4 hPa NNE 24.1 km/h 21.2 km/h 19 % 0 mm
16:34 35.2 °C 8.1 °C 1013.8 hPa NNW 14.8 km/h 9.8 km/h 19 % 0 mm
16:39 35.1 °C 8 °C 1013.4 hPa North 18.5 km/h 9.5 km/h 19 % 0 mm
16:44 35.4 °C 7.5 °C 1013.4 hPa NW 13 km/h 8.9 km/h 18 % 0 mm
16:49 35.6 °C 7.6 °C 1013.4 hPa North 22.2 km/h 13.7 km/h 18 % 0 mm
16:54 35.6 °C 7.6 °C 1013.4 hPa NW 18.5 km/h 15.6 km/h 18 % 0 mm
16:59 35.4 °C 7.5 °C 1013.4 hPa North 18.5 km/h 15.1 km/h 18 % 0 mm
17:04 35.3 °C 7.4 °C 1013.4 hPa NNW 18.5 km/h 15.3 km/h 18 % 0 mm
17:09 35.1 °C 7.2 °C 1013.4 hPa NW 22.2 km/h 13.4 km/h 18 % 0 mm
17:14 34.9 °C 7.9 °C 1013.4 hPa North 13 km/h 10 km/h 19 % 0 mm
17:19 35.1 °C 7.2 °C 1013.4 hPa ENE 14.8 km/h 8 km/h 18 % 0 mm
17:24 35.2 °C 7.3 °C 1013.4 hPa North 16.7 km/h 11.1 km/h 18 % 0 mm
17:29 35.2 °C 7.3 °C 1013.4 hPa NNW 18.5 km/h 11.4 km/h 18 % 0 mm
17:34 35.2 °C 7.3 °C 1013.4 hPa North 16.7 km/h 8.9 km/h 18 % 0 mm
17:39 35.1 °C 7.2 °C 1013.4 hPa North 11.3 km/h 7.9 km/h 18 % 0 mm
17:44 35.1 °C 7.2 °C 1013.4 hPa NNW 17.7 km/h 9.7 km/h 18 % 0 mm
17:49 34.9 °C 7.1 °C 1013.4 hPa NNE 14.8 km/h 8.2 km/h 18 % 0 mm
17:54 35.1 °C 7.2 °C 1013.4 hPa NNW 24.1 km/h 12.7 km/h 18 % 0 mm
17:59 34.9 °C 7.1 °C 1013.4 hPa NNW 18.5 km/h 8.5 km/h 18 % 0 mm
18:04 34.8 °C 7.8 °C 1013.4 hPa NNW 9.7 km/h 7.4 km/h 19 % 0 mm
18:09 35 °C 7.2 °C 1013.4 hPa North 14.8 km/h 8.5 km/h 18 % 0 mm
18:14 34.9 °C 7.1 °C 1013.4 hPa North 14.8 km/h 5.5 km/h 18 % 0 mm
18:19 34.8 °C 7 °C 1013.4 hPa North 7.4 km/h 5 km/h 18 % 0 mm
18:24 34.9 °C 7.1 °C 1013.4 hPa NNE 16.7 km/h 7.2 km/h 18 % 0 mm
18:29 34.8 °C 6.2 °C 1013.4 hPa North 16.7 km/h 10.6 km/h 17 % 0 mm
18:34 34.7 °C 6.9 °C 1013.4 hPa NNW 16.7 km/h 6.1 km/h 18 % 0 mm
18:39 34.6 °C 6.8 °C 1013.4 hPa North 14.8 km/h 8.7 km/h 18 % 0 mm
18:44 34.5 °C 6.7 °C 1013.4 hPa North 18.5 km/h 5.5 km/h 18 % 0 mm
18:49 34.5 °C 6.7 °C 1013.4 hPa NW 16.7 km/h 8 km/h 18 % 0 mm
18:54 34.4 °C 6.7 °C 1013.4 hPa NNW 11.3 km/h 5.5 km/h 18 % 0 mm
18:59 34.2 °C 6.5 °C 1013.4 hPa NNW 9.3 km/h 5.3 km/h 18 % 0 mm
19:04 34.2 °C 6.4 °C 1013.4 hPa NNW 7.4 km/h 4.7 km/h 18 % 0 mm
19:09 34.1 °C 6.4 °C 1013.8 hPa NNW 9.3 km/h 3.2 km/h 18 % 0 mm
19:14 34 °C 7.1 °C 1013.8 hPa NNW 9.3 km/h 4.3 km/h 19 % 0 mm
19:19 33.9 °C 7 °C 1013.8 hPa NNW 11.1 km/h 6.1 km/h 19 % 0 mm
19:24 33.7 °C 6.9 °C 1013.8 hPa North 14.8 km/h 6.4 km/h 19 % 0 mm
19:29 33.5 °C 6.7 °C 1013.8 hPa North 11.3 km/h 8.9 km/h 19 % 0 mm
19:34 33.3 °C 6.5 °C 1013.8 hPa NNE 11.3 km/h 10.9 km/h 19 % 0 mm
19:39 33.1 °C 6.3 °C 1013.8 hPa NNE 9.7 km/h 8 km/h 19 % 0 mm
19:44 32.8 °C 6.9 °C 1013.8 hPa NNE 9.7 km/h 4 km/h 20 % 0 mm
19:49 32.6 °C 6.7 °C 1013.8 hPa NNE 5.6 km/h 2.7 km/h 20 % 0 mm
19:54 32.2 °C 7.1 °C 1013.8 hPa NNE 5.6 km/h 3.9 km/h 21 % 0 mm
19:59 31.9 °C 6.8 °C 1014.1 hPa NNE 5.6 km/h 6.8 km/h 21 % 0 mm
20:04 31.7 °C 6.7 °C 1014.1 hPa NNE 5.6 km/h 2.7 km/h 21 % 0 mm
20:09 31.4 °C 6.5 °C 1014.1 hPa NNE 7.4 km/h 5.5 km/h 21 % 0 mm
20:14 31.2 °C 6.9 °C 1014.1 hPa NNE 7.4 km/h 4.3 km/h 22 % 0 mm
20:19 30.9 °C 7.3 °C 1014.1 hPa NNE 5.6 km/h 3.4 km/h 23 % 0 mm
20:24 30.7 °C 7.2 °C 1014.1 hPa NNE 5.6 km/h 2.4 km/h 23 % 0 mm
20:29 30.3 °C 6.8 °C 1014.1 hPa NNE 5.6 km/h 2.9 km/h 23 % 0 mm
20:34 30 °C 6.6 °C 1014.1 hPa NNE 5.6 km/h 2.3 km/h 23 % 0 mm
20:39 29.7 °C 6.9 °C 1014.4 hPa NNE 3.7 km/h 1.4 km/h 24 % 0 mm
20:44 29.4 °C 6.7 °C 1014.1 hPa NNE 3.2 km/h 2.9 km/h 24 % 0 mm
20:49 29.1 °C 7.1 °C 1014.4 hPa NNE 3.7 km/h 2.7 km/h 25 % 0 mm
20:54 28.6 °C 7.7 °C 1014.4 hPa NNE 3.7 km/h 2.4 km/h 27 % 0 mm
20:59 28.2 °C 7.4 °C 1014.4 hPa NNE 1.9 km/h 1.8 km/h 27 % 0 mm
21:04 27.8 °C 7.7 °C 1014.4 hPa NNE 3.7 km/h 2.3 km/h 28 % 0 mm
21:09 27.6 °C 7.4 °C 1014.4 hPa NNE 1.9 km/h 0.5 km/h 28 % 0 mm
21:14 27.4 °C 7.8 °C 1014.4 hPa NNE 3.7 km/h 1.1 km/h 29 % 0 mm
21:19 27.2 °C 7.6 °C 1014.4 hPa NNE 3.7 km/h 1.4 km/h 29 % 0 mm
21:24 27.1 °C 7.6 °C 1014.4 hPa NNE 3.7 km/h 1.8 km/h 29 % 0 mm
21:29 27.1 °C 7 °C 1014.4 hPa NNE 3.7 km/h 2.3 km/h 28 % 0 mm
21:34 26.9 °C 7.3 °C 1014.8 hPa NNE 3.7 km/h 2.7 km/h 29 % 0 mm
21:39 26.6 °C 7.1 °C 1014.8 hPa NNE 3.2 km/h 2.1 km/h 29 % 0 mm
21:44 26.3 °C 7.4 °C 1014.8 hPa NNE 3.7 km/h 2.4 km/h 30 % 0 mm
21:49 26.2 °C 7.2 °C 1014.8 hPa Calm     30 % 0 mm
21:54 26 °C 7.6 °C 1014.8 hPa Calm     31 % 0 mm
21:59 25.7 °C 7.7 °C 1014.8 hPa NNE 1.6 km/h 1.8 km/h 32 % 0 mm
22:04 25.4 °C 7.6 °C 1014.8 hPa Calm     32 % 0 mm
22:09 25.3 °C 6.9 °C 1014.8 hPa NNE 1.9 km/h 1.6 km/h 31 % 0 mm
22:14 25.3 °C 7.4 °C 1014.8 hPa NNE 1.9 km/h   32 % 0 mm
22:19 25.3 °C 6.9 °C 1015.1 hPa Calm     31 % 0 mm
22:24 25.5 °C 7.1 °C 1014.8 hPa NNE 3.7 km/h 1.3 km/h 31 % 0 mm
22:29 25.6 °C 7.2 °C 1015.1 hPa NNE 3.7 km/h 3.1 km/h 31 % 0 mm
22:34 25.4 °C 7.5 °C 1015.1 hPa NNE 3.7 km/h 2.6 km/h 32 % 0 mm
22:39 25.2 °C 7.3 °C 1015.1 hPa NNE 3.7 km/h 3.1 km/h 32 % 0 mm
22:44 24.9 °C 7.5 °C 1015.1 hPa NNE 5.6 km/h 3.4 km/h 33 % 0 mm
22:49 24.7 °C 7.3 °C 1015.1 hPa NNE 5.6 km/h 3.2 km/h 33 % 0 mm
22:54 24.7 °C 7.3 °C 1015.1 hPa NNE 3.7 km/h 0.3 km/h 33 % 0 mm
22:59 24.7 °C 7.8 °C 1015.1 hPa NNE 3.7 km/h 1.4 km/h 34 % 0 mm
23:04 24.6 °C 7.3 °C 1015.1 hPa NNE 1.9 km/h   33 % 0 mm
23:09 24.5 °C 7.2 °C 1014.8 hPa NNE 3.7 km/h 2.1 km/h 33 % 0 mm
23:14 24.4 °C 7.1 °C 1014.8 hPa NNE 4.8 km/h 2.4 km/h 33 % 0 mm
23:19 24.4 °C 7.1 °C 1014.8 hPa NNE 3.7 km/h 3.1 km/h 33 % 0 mm
23:24 24.4 °C 7.1 °C 1015.1 hPa NNE 3.7 km/h 2.6 km/h 33 % 0 mm
23:29 24.5 °C 7.2 °C 1014.8 hPa NNE 5.6 km/h 3.9 km/h 33 % 0 mm
23:34 24.4 °C 7.1 °C 1014.8 hPa NNE 3.7 km/h 1.6 km/h 33 % 0 mm
23:39 24.4 °C 7.1 °C 1014.8 hPa NNE 3.7 km/h 1.9 km/h 33 % 0 mm
23:44 24.5 °C 7.2 °C 1014.8 hPa NNE 3.7 km/h 1.4 km/h 33 % 0 mm
23:49 24.6 °C 6.8 °C 1014.8 hPa NNE 5.6 km/h 2.9 km/h 32 % 0 mm
23:54 24.6 °C 6.8 °C 1014.8 hPa NNE 3.2 km/h 1.9 km/h 32 % 0 mm
23:59 24.4 °C 7.1 °C 1014.8 hPa NNE 3.7 km/h 2.1 km/h 33 % 0 mm
Ararat Weather
Compliments of Weather Underground - 2.5 mb
Click here to send mail.


ABOUT

Live weather data from Ararat, Victoria, Australia, 3377
Data uploaded from Cumulus every 5 minutes to Weather Underground.
This site then downloads the raw data for formatting and display.
Metric and imperial data can be displayed. Graphs and historical data available.
Includes Sun and Moon times and rain image live from BOM.

Check out Ararat Weather on Facebook, Twitter and Google +

Help support ongoing costs by checking out the ads





Follow @AraratWeather